createdAt,value
2018-07-04T00:00:29.637Z,22.18
2018-07-04T00:01:29.631Z,22.12
2018-07-04T00:02:29.605Z,22.22
2018-07-04T00:03:29.540Z,22.07
2018-07-04T00:04:29.514Z,22.07
2018-07-04T00:05:29.499Z,22.12
2018-07-04T00:06:29.430Z,22.15
2018-07-04T00:07:29.412Z,22.05
2018-07-04T00:08:29.403Z,22.03
2018-07-04T00:09:29.329Z,21.99
2018-07-04T00:10:29.296Z,21.96
2018-07-04T00:11:29.263Z,21.94
2018-07-04T00:12:29.213Z,21.86
2018-07-04T00:13:29.203Z,21.91
2018-07-04T00:14:29.187Z,21.86
2018-07-04T00:15:29.142Z,21.83
2018-07-04T00:16:29.088Z,21.72
2018-07-04T00:17:29.053Z,21.75
2018-07-04T00:18:29.039Z,21.74
2018-07-04T00:19:37.437Z,21.75
2018-07-04T00:20:28.998Z,21.74
2018-07-04T00:21:28.899Z,21.67
2018-07-04T00:22:28.856Z,21.67
2018-07-04T00:23:28.863Z,21.74
2018-07-04T00:24:28.817Z,21.72
2018-07-04T00:25:28.757Z,21.82
2018-07-04T00:26:28.724Z,21.67
2018-07-04T00:27:28.688Z,21.74
2018-07-04T00:28:28.678Z,21.68
2018-07-04T00:29:28.619Z,21.72
2018-07-04T00:30:28.568Z,21.64
2018-07-04T00:31:28.551Z,21.61
2018-07-04T00:32:28.495Z,21.71
2018-07-04T00:33:28.475Z,21.58
2018-07-04T00:34:28.465Z,21.61
2018-07-04T00:35:28.406Z,21.65
2018-07-04T00:36:28.350Z,21.62
2018-07-04T00:37:28.360Z,21.62
2018-07-04T00:38:28.304Z,21.54
2018-07-04T00:39:28.276Z,21.46
2018-07-04T00:40:28.217Z,21.43
2018-07-04T00:41:28.198Z,21.42
2018-07-04T00:42:28.141Z,21.40
2018-07-04T00:43:36.471Z,21.32
2018-07-04T00:44:28.105Z,21.21
2018-07-04T00:45:28.038Z,21.17
2018-07-04T00:46:27.998Z,21.21
2018-07-04T00:47:27.979Z,21.22
2018-07-04T00:48:27.922Z,21.14
2018-07-04T00:49:28.004Z,21.16
2018-07-04T00:50:27.889Z,21.12
2018-07-04T00:51:27.822Z,21.06
2018-07-04T00:52:27.785Z,21.04
2018-07-04T00:53:27.766Z,20.94
2018-07-04T00:54:27.755Z,20.99
2018-07-04T00:55:27.696Z,20.87
2018-07-04T00:56:27.649Z,20.88
2018-07-04T00:57:27.618Z,20.88
2018-07-04T00:58:27.579Z,20.88
2018-07-04T00:59:27.565Z,20.76
2018-07-04T01:00:27.524Z,20.73
2018-07-04T01:01:27.460Z,20.80
2018-07-04T01:02:27.448Z,20.85
2018-07-04T01:03:27.399Z,20.73
2018-07-04T01:04:27.443Z,20.72
2018-07-04T01:05:27.360Z,20.66
2018-07-04T01:06:38.534Z,20.54
2018-07-04T01:07:27.247Z,20.57
2018-07-04T01:08:27.209Z,20.55
2018-07-04T01:09:27.201Z,20.54
2018-07-04T01:10:27.144Z,20.58
2018-07-04T01:11:27.102Z,20.58
2018-07-04T01:12:27.071Z,20.52
2018-07-04T01:13:27.047Z,20.58
2018-07-04T01:14:27.033Z,20.54
2018-07-04T01:15:27.017Z,20.52
2018-07-04T01:16:26.940Z,20.42
2018-07-04T01:17:26.886Z,20.47
2018-07-04T01:18:26.855Z,20.43
2018-07-04T01:19:26.877Z,20.42
2018-07-04T01:20:26.782Z,20.41
2018-07-04T01:21:26.739Z,20.42
2018-07-04T01:22:26.741Z,20.33
2018-07-04T01:23:26.693Z,20.33
2018-07-04T01:24:26.684Z,20.31
2018-07-04T01:25:26.618Z,20.29
2018-07-04T01:26:26.583Z,20.20
2018-07-04T01:27:26.545Z,20.14
2018-07-04T01:28:26.500Z,20.16
2018-07-04T01:29:26.476Z,20.17
2018-07-04T01:30:36.515Z,20.13
2018-07-04T01:31:26.433Z,20.18
2018-07-04T01:32:26.344Z,20.01
2018-07-04T01:33:26.324Z,20.21
2018-07-04T01:34:26.297Z,20.17
2018-07-04T01:35:26.268Z,20.18
2018-07-04T01:36:26.200Z,20.16
2018-07-04T01:37:26.181Z,20.14
2018-07-04T01:38:26.136Z,20.14
2018-07-04T01:39:26.091Z,20.17
2018-07-04T01:40:26.104Z,20.17
2018-07-04T01:41:26.017Z,20.14
2018-07-04T01:42:25.977Z,20.11
2018-07-04T01:43:25.964Z,20.14
2018-07-04T01:44:25.938Z,20.17
2018-07-04T01:45:25.929Z,20.10
2018-07-04T01:46:25.843Z,20.01
2018-07-04T01:47:25.794Z,19.98
2018-07-04T01:48:25.792Z,20.02
2018-07-04T01:49:25.729Z,19.95
2018-07-04T01:50:25.730Z,19.94
2018-07-04T01:51:25.713Z,19.95
2018-07-04T01:52:25.627Z,19.94
2018-07-04T01:53:25.588Z,19.94
2018-07-04T01:54:25.577Z,19.98
2018-07-04T01:55:25.587Z,20.01
2018-07-04T01:56:25.481Z,20.02
2018-07-04T01:57:25.450Z,20.02
2018-07-04T01:58:25.414Z,20.02
2018-07-04T01:59:25.371Z,20.02
2018-07-04T02:00:25.356Z,20.02
2018-07-04T02:01:25.297Z,20.02
2018-07-04T02:02:25.265Z,20.06
2018-07-04T02:03:25.243Z,20.03
2018-07-04T02:04:25.231Z,19.95
2018-07-04T02:05:25.174Z,19.88
2018-07-04T02:06:25.142Z,19.88
2018-07-04T02:07:25.085Z,19.77
2018-07-04T02:08:25.055Z,19.83
2018-07-04T02:09:25.019Z,19.81
2018-07-04T02:10:25.020Z,19.77
2018-07-04T02:11:24.937Z,19.77
2018-07-04T02:12:24.903Z,19.80
2018-07-04T02:13:24.850Z,19.80
2018-07-04T02:14:24.815Z,19.77
2018-07-04T02:15:24.805Z,19.81
2018-07-04T02:16:24.768Z,19.80
2018-07-04T02:17:24.708Z,19.83
2018-07-04T02:18:24.686Z,19.77
2018-07-04T02:19:24.635Z,19.68
2018-07-04T02:20:24.628Z,19.71
2018-07-04T02:21:24.611Z,19.76
2018-07-04T02:22:24.534Z,19.77
2018-07-04T02:23:24.488Z,19.66
2018-07-04T02:24:24.496Z,19.62
2018-07-04T02:25:24.449Z,19.62
2018-07-04T02:26:24.384Z,19.50
2018-07-04T02:27:24.346Z,19.54
2018-07-04T02:28:24.309Z,19.50
2018-07-04T02:29:24.286Z,19.51
2018-07-04T02:30:24.284Z,19.44
2018-07-04T02:31:24.208Z,19.44
2018-07-04T02:32:24.171Z,19.50
2018-07-04T02:33:24.135Z,19.44
2018-07-04T02:34:24.103Z,19.55
2018-07-04T02:35:24.087Z,19.44
2018-07-04T02:36:24.057Z,19.40
2018-07-04T02:37:23.974Z,19.50
2018-07-04T02:38:23.946Z,19.56
2018-07-04T02:39:23.931Z,19.55
2018-07-04T02:40:23.889Z,19.47
2018-07-04T02:41:23.869Z,19.47
2018-07-04T02:42:23.806Z,19.41
2018-07-04T02:43:23.771Z,19.47
2018-07-04T02:44:23.744Z,19.46
2018-07-04T02:45:23.702Z,19.56
2018-07-04T02:46:23.672Z,19.54
2018-07-04T02:47:23.647Z,19.41
2018-07-04T02:48:23.611Z,19.50
2018-07-04T02:49:23.547Z,19.33
2018-07-04T02:50:23.517Z,19.55
2018-07-04T02:51:23.486Z,19.41
2018-07-04T02:52:23.433Z,19.44
2018-07-04T02:53:23.424Z,19.43
2018-07-04T02:54:23.372Z,19.40
2018-07-04T02:55:23.317Z,19.39
2018-07-04T02:56:23.281Z,19.41
2018-07-04T02:57:23.246Z,19.37
2018-07-04T02:58:23.258Z,19.33
2018-07-04T02:59:23.179Z,19.33
2018-07-04T03:00:23.135Z,19.28
2018-07-04T03:01:23.116Z,19.28
2018-07-04T03:02:23.062Z,19.26
2018-07-04T03:03:23.053Z,19.28
2018-07-04T03:04:22.994Z,19.13
2018-07-04T03:05:22.955Z,19.11
2018-07-04T03:06:22.907Z,19.10
2018-07-04T03:07:22.900Z,18.94
2018-07-04T03:08:22.909Z,19.02
2018-07-04T03:09:22.811Z,18.95
2018-07-04T03:10:22.760Z,18.92
2018-07-04T03:11:22.763Z,18.78
2018-07-04T03:12:22.738Z,18.90
2018-07-04T03:13:22.697Z,18.91
2018-07-04T03:14:22.632Z,18.87
2018-07-04T03:15:22.584Z,18.84
2018-07-04T03:16:22.555Z,18.87
2018-07-04T03:17:22.520Z,18.90
2018-07-04T03:18:22.477Z,18.84
2018-07-04T03:19:22.465Z,18.87
2018-07-04T03:20:22.418Z,18.76
2018-07-04T03:21:22.379Z,18.75
2018-07-04T03:22:22.335Z,18.80
2018-07-04T03:23:22.294Z,18.82
2018-07-04T03:24:22.278Z,18.72
2018-07-04T03:25:22.228Z,18.75
2018-07-04T03:26:22.184Z,18.73
2018-07-04T03:27:22.144Z,18.73
2018-07-04T03:28:22.122Z,18.67
2018-07-04T03:29:22.092Z,18.72
2018-07-04T03:30:22.050Z,18.67
2018-07-04T03:31:21.998Z,18.76
2018-07-04T03:32:21.961Z,18.63
2018-07-04T03:33:21.928Z,18.66
2018-07-04T03:34:21.946Z,18.55
2018-07-04T03:35:21.848Z,18.57
2018-07-04T03:36:21.815Z,18.58
2018-07-04T03:37:21.777Z,18.52
2018-07-04T03:38:21.723Z,18.52
2018-07-04T03:39:21.764Z,18.51
2018-07-04T03:40:21.664Z,18.47
2018-07-04T03:41:21.617Z,18.45
2018-07-04T03:42:21.603Z,18.41
2018-07-04T03:43:21.575Z,18.48
2018-07-04T03:44:21.543Z,18.44
2018-07-04T03:45:21.469Z,18.41
2018-07-04T03:46:21.465Z,18.41
2018-07-04T03:47:21.410Z,18.41
2018-07-04T03:48:21.368Z,18.30
2018-07-04T03:49:21.328Z,18.23
2018-07-04T03:50:21.336Z,18.15
2018-07-04T03:51:21.257Z,18.15
2018-07-04T03:52:21.223Z,18.15
2018-07-04T03:53:21.179Z,18.17
2018-07-04T03:54:21.158Z,18.15
2018-07-04T03:55:21.130Z,18.20
2018-07-04T03:56:21.083Z,18.21
2018-07-04T03:57:21.045Z,18.29
2018-07-04T03:58:20.997Z,18.27
2018-07-04T03:59:20.951Z,18.26
2018-07-04T04:00:20.941Z,18.29
2018-07-04T04:01:20.879Z,18.36
2018-07-04T04:02:20.850Z,18.33
2018-07-04T04:03:20.818Z,18.33
2018-07-04T04:04:20.766Z,18.35
2018-07-04T04:05:20.753Z,18.36
2018-07-04T04:06:20.696Z,18.33
2018-07-04T04:07:20.698Z,18.36
2018-07-04T04:08:20.640Z,18.33
2018-07-04T04:09:20.575Z,18.30
2018-07-04T04:10:20.590Z,18.26
2018-07-04T04:11:20.507Z,18.35
2018-07-04T04:12:20.473Z,18.29
2018-07-04T04:13:20.435Z,18.29
2018-07-04T04:14:20.393Z,18.39
2018-07-04T04:15:30.090Z,18.42
2018-07-04T04:16:20.315Z,18.42
2018-07-04T04:17:20.369Z,18.55
2018-07-04T04:18:20.232Z,18.52
2018-07-04T04:19:20.199Z,18.62
2018-07-04T04:20:20.211Z,18.72
2018-07-04T04:21:20.132Z,18.69
2018-07-04T04:22:20.096Z,18.70
2018-07-04T04:23:20.109Z,18.76
2018-07-04T04:24:20.023Z,18.85
2018-07-04T04:25:20.032Z,18.90
2018-07-04T04:26:19.956Z,18.94
2018-07-04T04:27:19.915Z,18.82
2018-07-04T04:28:19.868Z,18.85
2018-07-04T04:29:19.838Z,18.84
2018-07-04T04:30:19.851Z,18.78
2018-07-04T04:31:19.790Z,18.81
2018-07-04T04:32:19.722Z,18.80
2018-07-04T04:33:19.691Z,18.82
2018-07-04T04:34:19.651Z,18.75
2018-07-04T04:35:19.657Z,18.82
2018-07-04T04:36:19.590Z,18.85
2018-07-04T04:37:19.548Z,18.92
2018-07-04T04:38:19.522Z,18.95
2018-07-04T04:39:19.484Z,18.95
2018-07-04T04:40:19.452Z,19.00
2018-07-04T04:41:19.404Z,19.02
2018-07-04T04:42:19.406Z,18.98
2018-07-04T04:43:19.315Z,19.00
2018-07-04T04:44:19.297Z,19.06
2018-07-04T04:45:19.297Z,19.08
2018-07-04T04:46:19.213Z,19.10
2018-07-04T04:47:19.170Z,19.07
2018-07-04T04:48:19.149Z,19.14
2018-07-04T04:49:19.146Z,19.25
2018-07-04T04:50:19.149Z,19.14
2018-07-04T04:51:19.034Z,19.28
2018-07-04T04:52:19.007Z,19.29
2018-07-04T04:53:19.002Z,19.29
2018-07-04T04:54:18.927Z,19.31
2018-07-04T04:55:18.928Z,19.36
2018-07-04T04:56:18.867Z,19.41
2018-07-04T04:57:18.823Z,19.44
2018-07-04T04:58:18.780Z,19.43
2018-07-04T04:59:18.728Z,19.46
2018-07-04T05:00:18.691Z,19.47
2018-07-04T05:01:18.693Z,19.58
2018-07-04T05:02:18.637Z,19.50
2018-07-04T05:03:18.585Z,19.47
2018-07-04T05:04:28.588Z,19.68
2018-07-04T05:05:18.517Z,19.66
2018-07-04T05:06:18.531Z,19.77
2018-07-04T05:07:18.429Z,19.74
2018-07-04T05:08:18.393Z,19.65
2018-07-04T05:09:18.356Z,19.86
2018-07-04T05:10:18.352Z,19.81
2018-07-04T05:11:18.308Z,19.92
2018-07-04T05:12:18.294Z,19.91
2018-07-04T05:13:18.226Z,20.11
2018-07-04T05:14:18.183Z,20.05
2018-07-04T05:15:18.201Z,20.17
2018-07-04T05:16:18.138Z,20.14
2018-07-04T05:17:18.100Z,20.23
2018-07-04T05:18:18.057Z,20.29
2018-07-04T05:19:18.015Z,20.33
2018-07-04T05:20:17.964Z,20.41
2018-07-04T05:21:17.937Z,20.51
2018-07-04T05:22:17.930Z,20.73
2018-07-04T05:23:17.874Z,20.87
2018-07-04T05:24:17.829Z,20.97
2018-07-04T05:25:17.825Z,20.95
2018-07-04T05:26:17.768Z,21.09
2018-07-04T05:27:17.756Z,21.17
2018-07-04T05:28:17.715Z,21.25
2018-07-04T05:29:17.646Z,21.46
2018-07-04T05:30:17.633Z,21.59
2018-07-04T05:31:17.565Z,21.80
2018-07-04T05:32:17.537Z,22.03
2018-07-04T05:33:17.529Z,22.58
2018-07-04T05:34:17.472Z,22.80
2018-07-04T05:35:17.461Z,23.13
2018-07-04T05:36:17.386Z,23.05
2018-07-04T05:37:17.360Z,23.05
2018-07-04T05:38:17.363Z,23.42
2018-07-04T05:39:17.280Z,24.27
2018-07-04T05:40:17.244Z,24.77
2018-07-04T05:41:17.211Z,25.52
2018-07-04T05:42:17.165Z,25.87
2018-07-04T05:43:17.135Z,25.95
2018-07-04T05:44:17.213Z,25.99
2018-07-04T05:45:17.073Z,25.94
2018-07-04T05:46:17.070Z,25.97
2018-07-04T05:47:17.000Z,25.82
2018-07-04T05:48:16.979Z,25.52
2018-07-04T05:49:26.735Z,25.15
2018-07-04T05:50:16.896Z,24.73
2018-07-04T05:51:16.855Z,24.87
2018-07-04T05:52:16.834Z,25.33
2018-07-04T05:53:16.791Z,25.47
2018-07-04T05:54:16.794Z,25.75
2018-07-04T05:55:16.726Z,25.83
2018-07-04T05:56:16.691Z,25.97
2018-07-04T05:57:16.664Z,26.09
2018-07-04T05:58:16.621Z,25.98
2018-07-04T05:59:16.646Z,26.54
2018-07-04T06:00:16.569Z,27.46
2018-07-04T06:01:16.534Z,28.17
2018-07-04T06:02:16.489Z,27.97
2018-07-04T06:03:16.457Z,28.07
2018-07-04T06:04:16.451Z,27.49
2018-07-04T06:05:16.424Z,27.21
2018-07-04T06:06:16.366Z,27.66
2018-07-04T06:07:16.338Z,28.04
2018-07-04T06:08:16.301Z,28.31
2018-07-04T06:09:16.257Z,28.77
2018-07-04T06:10:16.246Z,28.07
2018-07-04T06:11:16.189Z,27.66
2018-07-04T06:12:16.155Z,28.02
2018-07-04T06:13:16.128Z,27.43
2018-07-04T06:14:16.095Z,26.94
2018-07-04T06:15:16.078Z,26.50
2018-07-04T06:16:16.031Z,27.13
2018-07-04T06:17:15.995Z,27.74
2018-07-04T06:18:15.968Z,28.39
2018-07-04T06:19:15.946Z,28.90
2018-07-04T06:20:15.928Z,29.65
2018-07-04T06:21:15.856Z,30.34
2018-07-04T06:22:15.831Z,30.79
2018-07-04T06:23:15.803Z,30.82
2018-07-04T06:24:15.774Z,30.60
2018-07-04T06:25:15.778Z,30.73
2018-07-04T06:26:15.705Z,29.85
2018-07-04T06:27:15.670Z,28.90
2018-07-04T06:28:15.641Z,28.07
2018-07-04T06:29:15.626Z,27.88
2018-07-04T06:30:15.579Z,27.65
2018-07-04T06:31:15.571Z,27.99
2018-07-04T06:32:15.516Z,27.94
2018-07-04T06:33:15.482Z,27.70
2018-07-04T06:34:15.450Z,27.37
2018-07-04T06:35:15.414Z,27.06
2018-07-04T06:36:25.188Z,26.77
2018-07-04T06:37:15.361Z,26.69
2018-07-04T06:38:15.319Z,26.36
2018-07-04T06:39:15.337Z,26.66
2018-07-04T06:40:15.259Z,26.62
2018-07-04T06:41:15.249Z,26.99
2018-07-04T06:42:15.185Z,27.17
2018-07-04T06:43:15.161Z,26.80
2018-07-04T06:44:15.136Z,26.66
2018-07-04T06:45:15.091Z,26.58
2018-07-04T06:46:15.101Z,26.33
2018-07-04T06:47:15.034Z,26.35
2018-07-04T06:48:15.005Z,26.57
2018-07-04T06:49:15.014Z,28.55
2018-07-04T06:50:14.935Z,30.02
2018-07-04T06:51:14.898Z,31.25
2018-07-04T06:52:14.908Z,32.14
2018-07-04T06:53:14.837Z,32.28
2018-07-04T06:54:14.845Z,31.13
2018-07-04T06:55:14.779Z,30.15
2018-07-04T06:56:14.751Z,30.57
2018-07-04T06:57:14.762Z,30.70
2018-07-04T06:58:14.684Z,31.10
2018-07-04T06:59:14.659Z,30.53
2018-07-04T07:00:14.633Z,30.91
2018-07-04T07:01:14.647Z,31.10
2018-07-04T07:02:14.597Z,30.94
2018-07-04T07:03:14.528Z,30.86
2018-07-04T07:04:14.526Z,30.35
2018-07-04T07:05:14.475Z,29.82
2018-07-04T07:06:14.449Z,29.67
2018-07-04T07:07:14.441Z,29.97
2018-07-04T07:08:14.439Z,30.34
2018-07-04T07:09:14.362Z,29.58
2018-07-04T07:10:14.332Z,29.19
2018-07-04T07:11:14.312Z,28.93
2018-07-04T07:12:14.271Z,28.51
2018-07-04T07:13:14.254Z,28.33
2018-07-04T07:14:14.194Z,28.73
2018-07-04T07:15:14.161Z,28.93
2018-07-04T07:16:14.146Z,29.39
2018-07-04T07:17:14.096Z,30.24
2018-07-04T07:18:14.102Z,30.38
2018-07-04T07:19:14.045Z,31.32
2018-07-04T07:20:14.027Z,31.81
2018-07-04T07:21:14.014Z,32.59
2018-07-04T07:22:13.943Z,33.26
2018-07-04T07:23:13.931Z,33.59
2018-07-04T07:24:13.883Z,33.60
2018-07-04T07:25:13.849Z,34.15
2018-07-04T07:26:13.812Z,34.75
2018-07-04T07:27:13.791Z,34.92
2018-07-04T07:28:13.786Z,35.21
2018-07-04T07:29:13.739Z,35.02
2018-07-04T07:30:13.704Z,34.94
2018-07-04T07:31:13.663Z,34.72
2018-07-04T07:32:13.632Z,32.66
2018-07-04T07:33:13.647Z,31.76
2018-07-04T07:34:13.655Z,30.92
2018-07-04T07:35:13.545Z,30.80
2018-07-04T07:36:13.514Z,30.58
2018-07-04T07:37:13.491Z,30.35
2018-07-04T07:38:13.524Z,30.00
2018-07-04T07:39:13.497Z,29.73
2018-07-04T07:40:13.437Z,29.58
2018-07-04T07:41:13.399Z,30.04
2018-07-04T07:42:13.356Z,29.78
2018-07-04T07:43:13.328Z,30.02
2018-07-04T07:44:13.290Z,30.43
2018-07-04T07:45:13.306Z,30.62
2018-07-04T07:46:23.338Z,31.06
2018-07-04T07:47:13.310Z,31.34
2018-07-04T07:48:13.189Z,31.53
2018-07-04T07:49:13.272Z,31.28
2018-07-04T07:50:13.168Z,31.57
2018-07-04T07:51:13.091Z,31.47
2018-07-04T07:52:13.051Z,31.47
2018-07-04T07:53:13.013Z,31.26
2018-07-04T07:54:13.042Z,31.56
2018-07-04T07:55:12.975Z,32.14
2018-07-04T07:56:12.919Z,32.66
2018-07-04T07:57:12.905Z,32.87
2018-07-04T07:58:12.869Z,32.44
2018-07-04T07:59:12.844Z,32.87
2018-07-04T08:00:12.840Z,33.22
2018-07-04T08:01:12.779Z,33.23
2018-07-04T08:02:12.753Z,32.87
2018-07-04T08:03:12.726Z,32.15
2018-07-04T08:04:12.716Z,32.32
2018-07-04T08:05:12.659Z,32.75
2018-07-04T08:06:12.636Z,31.78
2018-07-04T08:07:12.602Z,31.68
2018-07-04T08:08:12.580Z,31.99
2018-07-04T08:09:12.579Z,32.35
2018-07-04T08:10:12.524Z,32.11
2018-07-04T08:11:12.490Z,31.89
2018-07-04T08:12:12.471Z,31.88
2018-07-04T08:13:12.440Z,32.21
2018-07-04T08:14:12.432Z,32.29
2018-07-04T08:15:12.392Z,32.35
2018-07-04T08:16:12.353Z,32.11
2018-07-04T08:17:12.321Z,32.33
2018-07-04T08:18:12.292Z,32.44
2018-07-04T08:19:12.300Z,32.63
2018-07-04T08:20:12.247Z,32.85
2018-07-04T08:21:12.212Z,32.88
2018-07-04T08:22:12.180Z,32.47
2018-07-04T08:23:12.159Z,31.62
2018-07-04T08:24:12.140Z,30.72
2018-07-04T08:25:12.128Z,30.55
2018-07-04T08:26:12.113Z,30.05
2018-07-04T08:27:12.057Z,30.26
2018-07-04T08:28:12.026Z,30.02
2018-07-04T08:29:11.994Z,30.01
2018-07-04T08:30:11.962Z,30.07
2018-07-04T08:31:11.958Z,29.61
2018-07-04T08:32:11.907Z,29.76
2018-07-04T08:33:11.886Z,29.27
2018-07-04T08:34:11.855Z,28.92
2018-07-04T08:35:11.817Z,28.55
2018-07-04T08:36:11.818Z,28.33
2018-07-04T08:37:11.773Z,28.31
2018-07-04T08:38:11.741Z,28.54
2018-07-04T08:39:11.713Z,28.96
2018-07-04T08:40:11.683Z,29.19
2018-07-04T08:41:11.650Z,29.41
2018-07-04T08:42:11.648Z,29.45
2018-07-04T08:43:11.592Z,29.51
2018-07-04T08:44:11.579Z,30.24
2018-07-04T08:45:11.532Z,30.45
2018-07-04T08:46:11.509Z,30.51
2018-07-04T08:47:11.503Z,30.13
2018-07-04T08:48:11.447Z,29.86
2018-07-04T08:49:11.411Z,29.60
2018-07-04T08:50:11.400Z,29.52
2018-07-04T08:51:11.402Z,29.64
2018-07-04T08:52:11.341Z,29.83
2018-07-04T08:53:11.313Z,29.86
2018-07-04T08:54:11.265Z,29.94
2018-07-04T08:55:11.232Z,29.97
2018-07-04T08:56:11.212Z,29.63
2018-07-04T08:57:11.180Z,29.52
2018-07-04T08:58:11.217Z,29.58
2018-07-04T08:59:11.121Z,29.53
2018-07-04T09:00:11.090Z,29.48
2018-07-04T09:01:11.057Z,29.70
2018-07-04T09:02:11.022Z,30.05
2018-07-04T09:03:10.991Z,30.29
2018-07-04T09:04:10.982Z,30.34
2018-07-04T09:05:10.947Z,30.86
2018-07-04T09:06:10.920Z,30.99
2018-07-04T09:07:10.920Z,31.04
2018-07-04T09:08:10.856Z,30.73
2018-07-04T09:09:10.861Z,30.57
2018-07-04T09:10:10.791Z,30.49
2018-07-04T09:11:10.796Z,30.38
2018-07-04T09:12:10.736Z,30.16
2018-07-04T09:13:10.691Z,29.85
2018-07-04T09:14:10.676Z,29.85
2018-07-04T09:15:10.666Z,29.58
2018-07-04T09:16:10.595Z,28.96
2018-07-04T09:17:10.633Z,28.73
2018-07-04T09:18:10.549Z,27.96
2018-07-04T09:19:10.522Z,27.82
2018-07-04T09:20:10.486Z,27.55
2018-07-04T09:21:10.470Z,27.51
2018-07-04T09:22:10.411Z,27.55
2018-07-04T09:23:10.392Z,27.55
2018-07-04T09:24:10.361Z,27.69
2018-07-04T09:25:10.313Z,27.74
2018-07-04T09:26:10.307Z,28.00
2018-07-04T09:27:10.289Z,27.97
2018-07-04T09:28:10.219Z,28.15
2018-07-04T09:29:10.200Z,28.34
2018-07-04T09:30:10.169Z,28.44
2018-07-04T09:31:10.156Z,28.78
2018-07-04T09:32:10.112Z,28.78
2018-07-04T09:33:10.071Z,29.12
2018-07-04T09:34:10.035Z,29.45
2018-07-04T09:35:10.041Z,29.55
2018-07-04T09:36:09.980Z,29.67
2018-07-04T09:37:09.955Z,29.98
2018-07-04T09:38:09.937Z,30.02
2018-07-04T09:39:09.880Z,30.15
2018-07-04T09:40:09.888Z,30.29
2018-07-04T09:41:09.825Z,30.49
2018-07-04T09:42:09.815Z,30.61
2018-07-04T09:43:20.297Z,30.80
2018-07-04T09:44:09.726Z,30.92
2018-07-04T09:45:09.714Z,30.83
2018-07-04T09:46:09.666Z,30.67
2018-07-04T09:47:09.644Z,30.98
2018-07-04T09:48:09.617Z,30.91
2018-07-04T09:49:09.582Z,30.98
2018-07-04T09:50:09.597Z,30.88
2018-07-04T09:51:09.525Z,31.10
2018-07-04T09:52:09.484Z,31.21
2018-07-04T09:53:09.469Z,31.16
2018-07-04T09:54:09.437Z,31.39
2018-07-04T09:55:09.400Z,31.56
2018-07-04T09:56:09.404Z,31.47
2018-07-04T09:57:09.348Z,31.35
2018-07-04T09:58:09.311Z,31.17
2018-07-04T09:59:09.289Z,30.99
2018-07-04T10:00:09.263Z,30.86
2018-07-04T10:01:09.234Z,30.67
2018-07-04T10:02:09.234Z,30.35
2018-07-04T10:03:09.178Z,30.34
2018-07-04T10:04:09.155Z,30.02
2018-07-04T10:05:09.132Z,29.78
2018-07-04T10:06:09.120Z,29.61
2018-07-04T10:07:09.060Z,29.52
2018-07-04T10:08:09.039Z,29.42
2018-07-04T10:09:09.014Z,29.43
2018-07-04T10:10:08.961Z,29.46
2018-07-04T10:11:08.953Z,29.28
2018-07-04T10:12:08.945Z,29.06
2018-07-04T10:13:08.887Z,29.28
2018-07-04T10:14:08.856Z,29.27
2018-07-04T10:15:08.822Z,29.27
2018-07-04T10:16:08.788Z,29.16
2018-07-04T10:17:08.805Z,29.04
2018-07-04T10:18:08.725Z,29.06
2018-07-04T10:19:08.719Z,29.09
2018-07-04T10:20:08.685Z,29.09
2018-07-04T10:21:08.644Z,28.93
2018-07-04T10:22:08.648Z,29.14
2018-07-04T10:23:08.600Z,29.06
2018-07-04T10:24:08.558Z,29.02
2018-07-04T10:25:08.516Z,29.15
2018-07-04T10:26:08.532Z,29.11
2018-07-04T10:27:08.454Z,29.11
2018-07-04T10:28:08.458Z,29.06
2018-07-04T10:29:08.402Z,29.02
2018-07-04T10:30:08.366Z,29.18
2018-07-04T10:31:08.343Z,29.11
2018-07-04T10:32:08.308Z,28.96
2018-07-04T10:33:08.321Z,28.88
2018-07-04T10:34:08.266Z,28.73
2018-07-04T10:35:08.225Z,28.80
2018-07-04T10:36:08.184Z,28.67
2018-07-04T10:37:08.141Z,28.71
2018-07-04T10:38:08.116Z,28.66
2018-07-04T10:39:08.124Z,28.73
2018-07-04T10:40:08.064Z,28.81
2018-07-04T10:41:08.017Z,28.88
2018-07-04T10:42:07.982Z,28.78
2018-07-04T10:43:07.965Z,28.76
2018-07-04T10:44:07.954Z,28.74
2018-07-04T10:45:07.894Z,28.83
2018-07-04T10:46:07.865Z,28.73
2018-07-04T10:47:07.830Z,28.81
2018-07-04T10:48:07.802Z,29.24
2018-07-04T10:49:07.786Z,29.37
2018-07-04T10:50:07.752Z,29.86
2018-07-04T10:51:07.704Z,30.02
2018-07-04T10:52:07.680Z,29.94
2018-07-04T10:53:07.652Z,29.80
2018-07-04T10:54:07.640Z,30.05
2018-07-04T10:55:07.579Z,30.43
2018-07-04T10:56:07.551Z,30.89
2018-07-04T10:57:07.525Z,31.19
2018-07-04T10:58:07.490Z,31.65
2018-07-04T10:59:07.486Z,32.04
2018-07-04T11:00:07.438Z,31.95
2018-07-04T11:01:07.405Z,31.72
2018-07-04T11:02:07.410Z,31.75
2018-07-04T11:03:07.394Z,32.03
2018-07-04T11:04:07.360Z,32.28
2018-07-04T11:05:07.303Z,32.07
2018-07-04T11:06:07.302Z,31.63
2018-07-04T11:07:07.265Z,31.34
2018-07-04T11:08:07.222Z,31.23
2018-07-04T11:09:07.185Z,31.32
2018-07-04T11:10:07.216Z,30.97
2018-07-04T11:11:07.141Z,30.86
2018-07-04T11:12:07.114Z,30.89
2018-07-04T11:13:07.084Z,30.83
2018-07-04T11:14:07.039Z,30.55
2018-07-04T11:15:07.052Z,30.26
2018-07-04T11:16:06.995Z,30.22
2018-07-04T11:17:17.808Z,30.10
2018-07-04T11:18:07.155Z,29.98
2018-07-04T11:19:07.272Z,29.78
2018-07-04T11:20:06.897Z,29.65
2018-07-04T11:21:06.849Z,29.74
2018-07-04T11:22:06.827Z,29.57
2018-07-04T11:23:06.801Z,29.58
2018-07-04T11:24:06.781Z,29.82
2018-07-04T11:25:06.752Z,29.74
2018-07-04T11:26:06.726Z,29.71
2018-07-04T11:27:06.673Z,29.60
2018-07-04T11:28:06.650Z,29.70
2018-07-04T11:29:06.621Z,29.65
2018-07-04T11:30:06.607Z,29.86
2018-07-04T11:31:06.584Z,30.17
2018-07-04T11:32:06.519Z,30.54
2018-07-04T11:33:06.496Z,30.94
2018-07-04T11:34:06.481Z,31.36
2018-07-04T11:35:06.485Z,31.39
2018-07-04T11:36:06.409Z,31.17
2018-07-04T11:37:06.389Z,30.91
2018-07-04T11:38:06.429Z,30.80
2018-07-04T11:39:17.216Z,30.70
2018-07-04T11:40:09.823Z,30.83
2018-07-04T11:41:06.988Z,30.99
2018-07-04T11:42:06.249Z,31.38
2018-07-04T11:43:06.379Z,31.70
2018-07-04T11:44:06.232Z,31.51
2018-07-04T11:45:06.208Z,31.38
2018-07-04T11:46:06.161Z,31.63
2018-07-04T11:47:06.099Z,31.84
2018-07-04T11:48:06.069Z,31.69
2018-07-04T11:49:06.039Z,32.03
2018-07-04T11:50:06.060Z,32.03
2018-07-04T11:51:06.011Z,31.95
2018-07-04T11:52:05.973Z,31.65
2018-07-04T11:53:05.947Z,31.50
2018-07-04T11:54:05.933Z,31.81
2018-07-04T11:55:05.909Z,31.75
2018-07-04T11:56:05.864Z,31.62
2018-07-04T11:57:05.861Z,31.56
2018-07-04T11:58:05.820Z,31.34
2018-07-04T11:59:05.782Z,31.46
2018-07-04T12:00:05.746Z,31.48
2018-07-04T12:01:05.751Z,31.51
2018-07-04T12:02:05.701Z,31.50
2018-07-04T12:03:05.674Z,31.23
2018-07-04T12:04:05.645Z,31.32
2018-07-04T12:05:05.629Z,31.19
2018-07-04T12:06:05.622Z,30.99
2018-07-04T12:07:05.600Z,30.98
2018-07-04T12:08:05.553Z,30.84
2018-07-04T12:09:05.518Z,30.77
2018-07-04T12:10:05.497Z,30.61
2018-07-04T12:11:05.484Z,30.69
2018-07-04T12:12:05.428Z,30.69
2018-07-04T12:13:05.414Z,30.91
2018-07-04T12:14:05.402Z,30.73
2018-07-04T12:15:05.343Z,30.82
2018-07-04T12:16:05.389Z,30.86
2018-07-04T12:17:05.833Z,30.80
2018-07-04T12:18:05.265Z,30.76
2018-07-04T12:19:05.341Z,30.64
2018-07-04T12:20:05.223Z,30.34
2018-07-04T12:21:05.209Z,30.24
2018-07-04T12:22:05.174Z,30.04
2018-07-04T12:23:05.128Z,29.61
2018-07-04T12:24:05.097Z,29.61
2018-07-04T12:25:05.064Z,29.64
2018-07-04T12:26:05.058Z,29.73
2018-07-04T12:27:05.038Z,29.61
2018-07-04T12:28:04.974Z,29.55
2018-07-04T12:29:04.977Z,29.60
2018-07-04T12:30:04.916Z,29.65
2018-07-04T12:31:04.905Z,29.79
2018-07-04T12:32:04.920Z,29.70
2018-07-04T12:33:04.896Z,29.79
2018-07-04T12:34:04.823Z,30.00
2018-07-04T12:35:04.784Z,30.10
2018-07-04T12:36:04.765Z,30.10
2018-07-04T12:37:04.709Z,30.01
2018-07-04T12:38:04.734Z,30.04
2018-07-04T12:39:04.645Z,30.02
2018-07-04T12:40:04.622Z,29.94
2018-07-04T12:41:04.596Z,29.98
2018-07-04T12:42:04.564Z,30.04
2018-07-04T12:43:04.560Z,30.07
2018-07-04T12:44:04.508Z,29.98
2018-07-04T12:45:04.473Z,30.00
2018-07-04T12:46:04.488Z,29.58
2018-07-04T12:47:04.498Z,29.43
2018-07-04T12:48:04.402Z,29.41
2018-07-04T12:49:04.343Z,29.33
2018-07-04T12:50:04.334Z,29.48
2018-07-04T12:51:04.336Z,29.37
2018-07-04T12:52:04.332Z,29.55